sensor_id;sensor_type;location;lat;lon;timestamp;pressure;altitude;pressure_sealevel;temperature;humidity
42519;BME280;28147;47.520;18.920;2024-02-23T00:01:26;97105.69;;;9.02;60.99
42519;BME280;28147;47.520;18.920;2024-02-23T00:03:51;97102.25;;;9.07;60.81
42519;BME280;28147;47.520;18.920;2024-02-23T00:06:17;97107.56;;;9.07;60.90
42519;BME280;28147;47.520;18.920;2024-02-23T00:08:42;97101.06;;;9.25;60.25
42519;BME280;28147;47.520;18.920;2024-02-23T00:11:08;97099.44;;;9.24;60.51
42519;BME280;28147;47.520;18.920;2024-02-23T00:13:33;97103.72;;;9.25;60.95
42519;BME280;28147;47.520;18.920;2024-02-23T00:15:58;97098.09;;;9.21;60.56
42519;BME280;28147;47.520;18.920;2024-02-23T00:18:24;97104.56;;;9.36;60.04
42519;BME280;28147;47.520;18.920;2024-02-23T00:20:49;97101.63;;;9.37;60.29
42519;BME280;28147;47.520;18.920;2024-02-23T00:23:14;97110.38;;;9.33;59.90
42519;BME280;28147;47.520;18.920;2024-02-23T00:25:40;97098.72;;;9.39;59.95
42519;BME280;28147;47.520;18.920;2024-02-23T00:28:05;97097.72;;;9.50;59.94
42519;BME280;28147;47.520;18.920;2024-02-23T00:30:30;97102.44;;;9.38;59.50
42519;BME280;28147;47.520;18.920;2024-02-23T00:32:56;97100.63;;;9.43;59.73
42519;BME280;28147;47.520;18.920;2024-02-23T00:35:21;97096.63;;;9.46;59.63
42519;BME280;28147;47.520;18.920;2024-02-23T00:37:47;97096.69;;;9.51;59.55
42519;BME280;28147;47.520;18.920;2024-02-23T00:40:12;97099.34;;;9.51;59.69
42519;BME280;28147;47.520;18.920;2024-02-23T00:43:55;97091.88;;;9.48;59.76
42519;BME280;28147;47.520;18.920;2024-02-23T00:46:20;97091.88;;;9.48;59.91
42519;BME280;28147;47.520;18.920;2024-02-23T00:49:23;97079.38;;;9.43;59.67
42519;BME280;28147;47.520;18.920;2024-02-23T00:51:48;97089.00;;;9.60;59.69
42519;BME280;28147;47.520;18.920;2024-02-23T00:54:14;97087.38;;;9.54;59.85
42519;BME280;28147;47.520;18.920;2024-02-23T00:56:39;97083.41;;;9.56;59.74
42519;BME280;28147;47.520;18.920;2024-02-23T00:59:05;97087.38;;;9.54;60.24
42519;BME280;28147;47.520;18.920;2024-02-23T01:01:30;97086.84;;;9.52;60.08
42519;BME280;28147;47.520;18.920;2024-02-23T01:03:57;97081.53;;;9.57;60.42
42519;BME280;28147;47.520;18.920;2024-02-23T01:06:23;97074.88;;;9.49;60.57
42519;BME280;28147;47.520;18.920;2024-02-23T01:08:48;97081.75;;;9.45;61.39
42519;BME280;28147;47.520;18.920;2024-02-23T01:11:14;97082.50;;;9.35;61.81
42519;BME280;28147;47.520;18.920;2024-02-23T01:14:22;97078.31;;;9.49;62.10
42519;BME280;28147;47.520;18.920;2024-02-23T01:16:48;97078.25;;;9.39;62.85
42519;BME280;28147;47.520;18.920;2024-02-23T01:19:13;97075.34;;;9.36;63.25
42519;BME280;28147;47.520;18.920;2024-02-23T01:21:40;97076.44;;;9.40;63.76
42519;BME280;28147;47.520;18.920;2024-02-23T01:24:06;97078.75;;;9.26;64.46
42519;BME280;28147;47.520;18.920;2024-02-23T01:26:31;97054.28;;;9.24;64.69
42519;BME280;28147;47.520;18.920;2024-02-23T01:28:56;97062.31;;;9.34;65.28
42519;BME280;28147;47.520;18.920;2024-02-23T01:31:24;97052.47;;;9.24;65.72
42519;BME280;28147;47.520;18.920;2024-02-23T01:33:52;97048.94;;;9.14;66.71
42519;BME280;28147;47.520;18.920;2024-02-23T01:36:17;97045.78;;;9.17;67.14
42519;BME280;28147;47.520;18.920;2024-02-23T01:38:43;97052.09;;;9.11;67.94
42519;BME280;28147;47.520;18.920;2024-02-23T01:41:08;97047.31;;;9.08;68.92
42519;BME280;28147;47.520;18.920;2024-02-23T01:43:34;97040.91;;;8.98;69.69
42519;BME280;28147;47.520;18.920;2024-02-23T01:45:59;97030.22;;;8.93;70.89
42519;BME280;28147;47.520;18.920;2024-02-23T01:48:25;97037.91;;;8.90;72.06
42519;BME280;28147;47.520;18.920;2024-02-23T01:50:51;97036.03;;;8.85;73.06
42519;BME280;28147;47.520;18.920;2024-02-23T01:53:17;97040.00;;;8.83;73.46
42519;BME280;28147;47.520;18.920;2024-02-23T01:55:45;97038.16;;;8.83;73.90
42519;BME280;28147;47.520;18.920;2024-02-23T01:58:11;97040.25;;;8.81;74.22
42519;BME280;28147;47.520;18.920;2024-02-23T02:00:36;97035.41;;;8.73;74.48
42519;BME280;28147;47.520;18.920;2024-02-23T02:03:02;97047.41;;;8.81;74.53
42519;BME280;28147;47.520;18.920;2024-02-23T02:05:28;97038.16;;;8.88;74.49
42519;BME280;28147;47.520;18.920;2024-02-23T02:07:55;97031.50;;;8.81;74.95
42519;BME280;28147;47.520;18.920;2024-02-23T02:10:23;97042.97;;;8.91;74.95
42519;BME280;28147;47.520;18.920;2024-02-23T02:12:49;97035.53;;;8.88;75.60
42519;BME280;28147;47.520;18.920;2024-02-23T02:15:14;97030.69;;;8.80;75.50
42519;BME280;28147;47.520;18.920;2024-02-23T02:17:40;97029.41;;;8.83;75.38
42519;BME280;28147;47.520;18.920;2024-02-23T02:20:11;97033.69;;;8.94;75.94
42519;BME280;28147;47.520;18.920;2024-02-23T02:22:37;97030.63;;;8.75;76.66
42519;BME280;28147;47.520;18.920;2024-02-23T02:25:02;97019.56;;;8.83;76.64
42519;BME280;28147;47.520;18.920;2024-02-23T02:27:28;97027.53;;;8.83;76.96
42519;BME280;28147;47.520;18.920;2024-02-23T02:29:53;97032.31;;;8.86;77.48
42519;BME280;28147;47.520;18.920;2024-02-23T02:32:18;97034.94;;;8.81;77.63
42519;BME280;28147;47.520;18.920;2024-02-23T02:34:44;97033.84;;;8.77;78.44
42519;BME280;28147;47.520;18.920;2024-02-23T02:37:09;97034.44;;;8.84;79.26
42519;BME280;28147;47.520;18.920;2024-02-23T02:39:35;97036.63;;;8.97;79.53
42519;BME280;28147;47.520;18.920;2024-02-23T02:42:01;97046.53;;;8.70;81.41
42519;BME280;28147;47.520;18.920;2024-02-23T02:44:26;97021.34;;;8.72;81.42
42519;BME280;28147;47.520;18.920;2024-02-23T02:46:55;97029.75;;;8.59;83.31
42519;BME280;28147;47.520;18.920;2024-02-23T02:49:20;97034.50;;;8.57;84.84
42519;BME280;28147;47.520;18.920;2024-02-23T02:51:46;97037.69;;;8.59;85.17
42519;BME280;28147;47.520;18.920;2024-02-23T02:54:11;97036.88;;;8.53;86.43
42519;BME280;28147;47.520;18.920;2024-02-23T02:56:36;97037.09;;;8.52;89.09
42519;BME280;28147;47.520;18.920;2024-02-23T02:59:06;97045.34;;;8.56;87.93
42519;BME280;28147;47.520;18.920;2024-02-23T03:03:00;97035.41;;;8.68;89.19
42519;BME280;28147;47.520;18.920;2024-02-23T03:05:26;97030.47;;;8.49;90.16
42519;BME280;28147;47.520;18.920;2024-02-23T03:09:34;97040.34;;;8.96;88.79
42519;BME280;28147;47.520;18.920;2024-02-23T03:11:59;97040.13;;;8.66;89.41
42519;BME280;28147;47.520;18.920;2024-02-23T03:14:25;97036.28;;;8.46;90.48
42519;BME280;28147;47.520;18.920;2024-02-23T03:16:50;97037.41;;;8.56;90.80
42519;BME280;28147;47.520;18.920;2024-02-23T03:19:16;97036.88;;;8.53;90.87
42519;BME280;28147;47.520;18.920;2024-02-23T03:21:41;97042.13;;;8.48;92.05
42519;BME280;28147;47.520;18.920;2024-02-23T03:24:06;97049.88;;;8.55;92.78
42519;BME280;28147;47.520;18.920;2024-02-23T03:28:35;97044.13;;;8.36;94.61
42519;BME280;28147;47.520;18.920;2024-02-23T03:31:01;97032.38;;;8.27;95.37
42519;BME280;28147;47.520;18.920;2024-02-23T03:33:26;97053.28;;;8.50;94.66
42519;BME280;28147;47.520;18.920;2024-02-23T03:35:52;97048.31;;;8.32;93.85
42519;BME280;28147;47.520;18.920;2024-02-23T03:38:17;97039.44;;;8.43;95.13
42519;BME280;28147;47.520;18.920;2024-02-23T03:40:43;97037.97;;;8.31;95.25
42519;BME280;28147;47.520;18.920;2024-02-23T03:43:08;97039.84;;;8.30;95.12
42519;BME280;28147;47.520;18.920;2024-02-23T03:45:34;97034.22;;;8.53;94.47
42519;BME280;28147;47.520;18.920;2024-02-23T03:48:03;97049.09;;;8.60;93.28
42519;BME280;28147;47.520;18.920;2024-02-23T03:50:29;97052.69;;;8.43;94.00
42519;BME280;28147;47.520;18.920;2024-02-23T03:52:55;97039.88;;;8.35;95.40
42519;BME280;28147;47.520;18.920;2024-02-23T03:55:20;97049.28;;;8.48;94.85
42519;BME280;28147;47.520;18.920;2024-02-23T03:57:47;97049.69;;;8.35;95.34
42519;BME280;28147;47.520;18.920;2024-02-23T04:00:12;97049.13;;;8.33;95.94
42519;BME280;28147;47.520;18.920;2024-02-23T04:02:38;97052.41;;;8.40;94.83
42519;BME280;28147;47.520;18.920;2024-02-23T04:05:04;97051.25;;;8.63;94.38
42519;BME280;28147;47.520;18.920;2024-02-23T04:07:30;97056.91;;;8.39;95.28
42519;BME280;28147;47.520;18.920;2024-02-23T04:09:55;97062.78;;;8.41;94.87
42519;BME280;28147;47.520;18.920;2024-02-23T04:12:21;97058.25;;;8.42;94.58
42519;BME280;28147;47.520;18.920;2024-02-23T04:14:47;97052.53;;;8.28;95.25
42519;BME280;28147;47.520;18.920;2024-02-23T04:17:13;97060.22;;;8.29;95.06
42519;BME280;28147;47.520;18.920;2024-02-23T04:19:38;97048.53;;;8.52;94.58
42519;BME280;28147;47.520;18.920;2024-02-23T04:22:07;97054.94;;;8.57;94.45
42519;BME280;28147;47.520;18.920;2024-02-23T04:24:36;97059.19;;;8.31;95.15
42519;BME280;28147;47.520;18.920;2024-02-23T04:27:01;97051.19;;;8.52;94.50
42519;BME280;28147;47.520;18.920;2024-02-23T04:29:27;97059.94;;;8.53;94.83
42519;BME280;28147;47.520;18.920;2024-02-23T04:31:52;97052.31;;;8.62;94.83
42519;BME280;28147;47.520;18.920;2024-02-23T04:34:17;97054.88;;;8.51;95.74
42519;BME280;28147;47.520;18.920;2024-02-23T04:36:43;97064.50;;;8.63;95.10
42519;BME280;28147;47.520;18.920;2024-02-23T04:39:08;97065.50;;;8.51;92.93
42519;BME280;28147;47.520;18.920;2024-02-23T04:41:34;97061.88;;;8.63;93.40
42519;BME280;28147;47.520;18.920;2024-02-23T04:43:59;97071.94;;;8.61;nan
42519;BME280;28147;47.520;18.920;2024-02-23T04:46:26;97056.78;;;8.56;93.55
42519;BME280;28147;47.520;18.920;2024-02-23T04:48:51;97066.69;;;8.71;93.83
42519;BME280;28147;47.520;18.920;2024-02-23T04:51:17;97065.56;;;8.62;93.50
42519;BME280;28147;47.520;18.920;2024-02-23T04:53:42;97074.72;;;8.76;92.39
42519;BME280;28147;47.520;18.920;2024-02-23T04:56:07;97067.13;;;8.58;92.79
42519;BME280;28147;47.520;18.920;2024-02-23T04:58:33;97062.06;;;8.88;91.84
42519;BME280;28147;47.520;18.920;2024-02-23T05:00:58;97083.25;;;8.83;90.74
42519;BME280;28147;47.520;18.920;2024-02-23T05:03:23;97079.97;;;8.71;91.28
42519;BME280;28147;47.520;18.920;2024-02-23T05:05:49;97086.91;;;8.77;91.04
42519;BME280;28147;47.520;18.920;2024-02-23T05:08:19;97080.34;;;8.85;91.23
42519;BME280;28147;47.520;18.920;2024-02-23T05:10:44;97087.41;;;8.74;91.63
42519;BME280;28147;47.520;18.920;2024-02-23T05:13:09;97087.00;;;8.87;90.96
42519;BME280;28147;47.520;18.920;2024-02-23T05:15:35;97089.84;;;8.75;90.45
42519;BME280;28147;47.520;18.920;2024-02-23T05:18:00;97103.09;;;8.75;91.78
42519;BME280;28147;47.520;18.920;2024-02-23T05:20:25;97091.03;;;8.95;90.77
42519;BME280;28147;47.520;18.920;2024-02-23T05:22:51;97103.06;;;9.08;90.32
42519;BME280;28147;47.520;18.920;2024-02-23T05:25:16;97102.13;;;8.87;89.40
42519;BME280;28147;47.520;18.920;2024-02-23T05:27:41;97108.53;;;8.91;90.53
42519;BME280;28147;47.520;18.920;2024-02-23T05:30:07;97107.13;;;8.83;89.75
42519;BME280;28147;47.520;18.920;2024-02-23T05:32:33;97112.78;;;8.92;89.63
42519;BME280;28147;47.520;18.920;2024-02-23T05:34:58;97116.78;;;8.94;90.52
42519;BME280;28147;47.520;18.920;2024-02-23T05:37:24;97115.06;;;9.20;89.17
42519;BME280;28147;47.520;18.920;2024-02-23T05:39:49;97109.38;;;9.01;88.77
42519;BME280;28147;47.520;18.920;2024-02-23T05:42:14;97126.81;;;9.30;87.08
42519;BME280;28147;47.520;18.920;2024-02-23T05:44:43;97141.41;;;9.27;87.03
42519;BME280;28147;47.520;18.920;2024-02-23T05:47:08;97138.41;;;9.13;85.46
42519;BME280;28147;47.520;18.920;2024-02-23T05:49:35;97152.50;;;9.19;86.44
42519;BME280;28147;47.520;18.920;2024-02-23T05:52:00;97151.00;;;9.28;85.15
42519;BME280;28147;47.520;18.920;2024-02-23T05:54:25;97143.63;;;9.40;85.05
42519;BME280;28147;47.520;18.920;2024-02-23T05:56:51;97152.00;;;9.22;86.46
42519;BME280;28147;47.520;18.920;2024-02-23T05:59:16;97155.81;;;8.99;87.89
42519;BME280;28147;47.520;18.920;2024-02-23T06:01:41;97155.63;;;9.06;88.88
42519;BME280;28147;47.520;18.920;2024-02-23T06:04:07;97146.16;;;8.83;90.05
42519;BME280;28147;47.520;18.920;2024-02-23T06:06:32;97163.34;;;9.12;89.45
42519;BME280;28147;47.520;18.920;2024-02-23T06:08:57;97166.03;;;8.85;89.86
42519;BME280;28147;47.520;18.920;2024-02-23T06:11:23;97168.22;;;8.93;90.74
42519;BME280;28147;47.520;18.920;2024-02-23T06:13:48;97169.44;;;8.75;90.96
42519;BME280;28147;47.520;18.920;2024-02-23T06:16:14;97173.34;;;8.68;92.52
42519;BME280;28147;47.520;18.920;2024-02-23T06:18:39;97172.31;;;8.74;92.46
42519;BME280;28147;47.520;18.920;2024-02-23T06:21:14;97184.00;;;8.73;93.07
42519;BME280;28147;47.520;18.920;2024-02-23T06:23:41;97188.06;;;8.86;94.00
42519;BME280;28147;47.520;18.920;2024-02-23T06:26:06;97183.84;;;8.58;95.18
42519;BME280;28147;47.520;18.920;2024-02-23T06:28:32;97198.47;;;8.60;96.15
42519;BME280;28147;47.520;18.920;2024-02-23T06:30:58;97197.84;;;8.80;94.55
42519;BME280;28147;47.520;18.920;2024-02-23T06:33:23;97188.44;;;8.67;94.50
42519;BME280;28147;47.520;18.920;2024-02-23T06:35:48;97200.25;;;8.82;94.98
42519;BME280;28147;47.520;18.920;2024-02-23T06:38:14;97202.78;;;8.44;96.08
42519;BME280;28147;47.520;18.920;2024-02-23T06:40:40;97203.81;;;8.38;96.82
42519;BME280;28147;47.520;18.920;2024-02-23T06:43:05;97196.53;;;8.56;96.96
42519;BME280;28147;47.520;18.920;2024-02-23T06:46:52;97191.16;;;8.45;99.22
42519;BME280;28147;47.520;18.920;2024-02-23T06:50:57;97173.50;;;8.34;99.18
42519;BME280;28147;47.520;18.920;2024-02-23T06:53:22;97213.22;;;8.51;99.89
42519;BME280;28147;47.520;18.920;2024-02-23T06:55:48;97199.94;;;8.51;100.00
42519;BME280;28147;47.520;18.920;2024-02-23T06:58:13;97194.09;;;8.76;99.36
42519;BME280;28147;47.520;18.920;2024-02-23T07:00:39;97210.44;;;9.27;99.50
42519;BME280;28147;47.520;18.920;2024-02-23T07:03:05;97198.38;;;9.09;96.79
42519;BME280;28147;47.520;18.920;2024-02-23T07:05:30;97208.19;;;9.09;97.22
42519;BME280;28147;47.520;18.920;2024-02-23T07:07:56;97221.84;;;9.22;97.05
42519;BME280;28147;47.520;18.920;2024-02-23T07:10:21;97225.25;;;9.18;97.85
42519;BME280;28147;47.520;18.920;2024-02-23T07:12:47;97212.00;;;9.23;97.72
42519;BME280;28147;47.520;18.920;2024-02-23T07:15:14;97212.19;;;9.11;98.56
42519;BME280;28147;47.520;18.920;2024-02-23T07:17:39;97229.00;;;9.22;97.67
42519;BME280;28147;47.520;18.920;2024-02-23T07:20:05;97234.34;;;9.27;98.25
42519;BME280;28147;47.520;18.920;2024-02-23T07:22:33;97233.13;;;9.08;98.28
42519;BME280;28147;47.520;18.920;2024-02-23T07:24:59;97228.91;;;8.80;100.00
42519;BME280;28147;47.520;18.920;2024-02-23T07:27:26;97231.94;;;8.66;100.00
42519;BME280;28147;47.520;18.920;2024-02-23T07:29:52;97223.44;;;8.91;100.00
42519;BME280;28147;47.520;18.920;2024-02-23T07:32:17;97229.53;;;8.65;100.00
42519;BME280;28147;47.520;18.920;2024-02-23T07:34:42;97239.59;;;8.19;100.00
42519;BME280;28147;47.520;18.920;2024-02-23T07:37:08;97241.56;;;8.72;100.00
42519;BME280;28147;47.520;18.920;2024-02-23T07:39:33;97229.59;;;8.70;100.00
42519;BME280;28147;47.520;18.920;2024-02-23T07:41:58;97238.50;;;8.86;100.00
42519;BME280;28147;47.520;18.920;2024-02-23T07:44:23;97239.59;;;8.90;100.00
42519;BME280;28147;47.520;18.920;2024-02-23T07:46:50;97252.41;;;8.71;100.00
42519;BME280;28147;47.520;18.920;2024-02-23T07:49:17;97240.31;;;8.80;100.00
42519;BME280;28147;47.520;18.920;2024-02-23T07:51:42;97241.88;;;8.76;100.00
42519;BME280;28147;47.520;18.920;2024-02-23T07:54:08;97243.09;;;8.95;100.00
42519;BME280;28147;47.520;18.920;2024-02-23T07:56:33;97248.03;;;8.60;100.00
42519;BME280;28147;47.520;18.920;2024-02-23T07:58:58;97240.91;;;8.60;100.00
42519;BME280;28147;47.520;18.920;2024-02-23T08:03:02;97251.25;;;8.62;100.00
42519;BME280;28147;47.520;18.920;2024-02-23T08:05:27;97245.81;;;8.73;100.00
42519;BME280;28147;47.520;18.920;2024-02-23T08:07:53;97239.28;;;8.59;100.00
42519;BME280;28147;47.520;18.920;2024-02-23T08:10:18;97249.41;;;8.40;100.00
42519;BME280;28147;47.520;18.920;2024-02-23T08:12:43;97260.88;;;8.68;100.00
42519;BME280;28147;47.520;18.920;2024-02-23T08:15:09;97257.31;;;8.57;100.00
42519;BME280;28147;47.520;18.920;2024-02-23T08:17:34;97254.72;;;8.89;100.00
42519;BME280;28147;47.520;18.920;2024-02-23T08:20:00;97260.31;;;8.66;100.00
42519;BME280;28147;47.520;18.920;2024-02-23T08:22:25;97257.63;;;8.88;100.00
42519;BME280;28147;47.520;18.920;2024-02-23T08:24:51;97269.84;;;8.89;100.00
42519;BME280;28147;47.520;18.920;2024-02-23T08:27:16;97260.66;;;9.01;100.00
42519;BME280;28147;47.520;18.920;2024-02-23T08:29:41;97261.66;;;8.90;100.00
42519;BME280;28147;47.520;18.920;2024-02-23T08:32:07;97265.09;;;9.18;100.00
42519;BME280;28147;47.520;18.920;2024-02-23T08:34:33;97271.06;;;9.03;100.00
42519;BME280;28147;47.520;18.920;2024-02-23T08:36:59;97272.13;;;9.34;100.00
42519;BME280;28147;47.520;18.920;2024-02-23T08:39:25;97273.25;;;9.11;100.00
42519;BME280;28147;47.520;18.920;2024-02-23T08:41:50;97277.00;;;9.15;100.00
42519;BME280;28147;47.520;18.920;2024-02-23T08:44:16;97278.72;;;9.32;100.00
42519;BME280;28147;47.520;18.920;2024-02-23T08:46:42;97283.88;;;9.11;100.00
42519;BME280;28147;47.520;18.920;2024-02-23T08:49:07;97282.34;;;9.20;100.00
42519;BME280;28147;47.520;18.920;2024-02-23T08:51:33;97286.00;;;9.41;100.00
42519;BME280;28147;47.520;18.920;2024-02-23T08:53:58;97286.59;;;9.48;100.00
42519;BME280;28147;47.520;18.920;2024-02-23T08:56:28;97282.84;;;9.44;100.00
42519;BME280;28147;47.520;18.920;2024-02-23T08:58:53;97293.00;;;9.53;100.00
42519;BME280;28147;47.520;18.920;2024-02-23T09:01:18;97295.69;;;9.58;100.00
42519;BME280;28147;47.520;18.920;2024-02-23T09:03:44;97290.75;;;9.39;100.00
42519;BME280;28147;47.520;18.920;2024-02-23T09:06:10;97293.53;;;9.22;100.00
42519;BME280;28147;47.520;18.920;2024-02-23T09:08:35;97293.38;;;9.34;100.00
42519;BME280;28147;47.520;18.920;2024-02-23T09:11:01;97297.34;;;9.64;100.00
42519;BME280;28147;47.520;18.920;2024-02-23T09:13:27;97289.75;;;9.45;100.00
42519;BME280;28147;47.520;18.920;2024-02-23T09:15:54;97283.00;;;9.33;100.00
42519;BME280;28147;47.520;18.920;2024-02-23T09:18:20;97301.75;;;9.53;100.00
42519;BME280;28147;47.520;18.920;2024-02-23T09:20:45;97307.28;;;9.46;100.00
42519;BME280;28147;47.520;18.920;2024-02-23T09:23:10;97304.03;;;9.39;99.82
42519;BME280;28147;47.520;18.920;2024-02-23T09:25:37;97300.41;;;9.18;100.00
42519;BME280;28147;47.520;18.920;2024-02-23T09:28:02;97296.34;;;9.43;100.00
42519;BME280;28147;47.520;18.920;2024-02-23T09:30:28;97288.44;;;9.48;100.00
42519;BME280;28147;47.520;18.920;2024-02-23T09:32:53;97297.53;;;9.57;98.95
42519;BME280;28147;47.520;18.920;2024-02-23T09:35:19;97299.41;;;9.57;100.00
42519;BME280;28147;47.520;18.920;2024-02-23T09:37:45;97282.78;;;9.39;100.00
42519;BME280;28147;47.520;18.920;2024-02-23T09:40:11;97301.47;;;9.17;100.00
42519;BME280;28147;47.520;18.920;2024-02-23T09:42:36;97297.72;;;9.13;100.00
42519;BME280;28147;47.520;18.920;2024-02-23T09:45:05;97296.28;;;9.33;100.00
42519;BME280;28147;47.520;18.920;2024-02-23T09:47:31;97305.91;;;9.12;100.00
42519;BME280;28147;47.520;18.920;2024-02-23T09:49:56;97302.44;;;8.84;100.00
42519;BME280;28147;47.520;18.920;2024-02-23T09:52:22;97297.63;;;9.08;100.00
42519;BME280;28147;47.520;18.920;2024-02-23T09:54:48;97307.31;;;8.92;100.00
42519;BME280;28147;47.520;18.920;2024-02-23T09:57:14;97311.41;;;9.05;100.00
42519;BME280;28147;47.520;18.920;2024-02-23T09:59:40;97315.31;;;8.97;100.00
42519;BME280;28147;47.520;18.920;2024-02-23T10:02:09;97319.28;;;9.22;100.00
42519;BME280;28147;47.520;18.920;2024-02-23T10:04:36;97321.94;;;9.22;98.32
42519;BME280;28147;47.520;18.920;2024-02-23T10:07:01;97323.94;;;9.10;99.60
42519;BME280;28147;47.520;18.920;2024-02-23T10:09:26;97327.44;;;9.15;99.81
42519;BME280;28147;47.520;18.920;2024-02-23T10:11:52;97319.63;;;9.04;99.62
42519;BME280;28147;47.520;18.920;2024-02-23T10:14:18;97310.69;;;9.10;99.90
42519;BME280;28147;47.520;18.920;2024-02-23T10:16:43;97314.13;;;9.10;100.00
42519;BME280;28147;47.520;18.920;2024-02-23T10:19:09;97317.38;;;8.90;100.00
42519;BME280;28147;47.520;18.920;2024-02-23T10:21:34;97317.31;;;8.85;100.00
42519;BME280;28147;47.520;18.920;2024-02-23T10:24:00;97322.94;;;9.16;99.80
42519;BME280;28147;47.520;18.920;2024-02-23T10:26:26;97326.16;;;9.18;99.31
42519;BME280;28147;47.520;18.920;2024-02-23T10:28:51;97326.03;;;9.35;99.18
42519;BME280;28147;47.520;18.920;2024-02-23T10:31:17;97323.00;;;9.53;99.19
42519;BME280;28147;47.520;18.920;2024-02-23T10:33:44;97329.72;;;9.61;98.35
42519;BME280;28147;47.520;18.920;2024-02-23T10:36:11;97327.56;;;9.58;95.56
42519;BME280;28147;47.520;18.920;2024-02-23T10:38:38;97326.53;;;9.59;96.66
42519;BME280;28147;47.520;18.920;2024-02-23T10:41:05;97330.81;;;9.65;96.09
42519;BME280;28147;47.520;18.920;2024-02-23T10:43:41;97320.13;;;9.55;96.86
42519;BME280;28147;47.520;18.920;2024-02-23T10:46:09;97320.09;;;9.87;95.95
42519;BME280;28147;47.520;18.920;2024-02-23T10:48:39;97322.75;;;9.87;93.67
42519;BME280;28147;47.520;18.920;2024-02-23T10:51:06;97325.72;;;9.95;94.19
42519;BME280;28147;47.520;18.920;2024-02-23T10:53:32;97328.66;;;9.94;92.47
42519;BME280;28147;47.520;18.920;2024-02-23T10:55:59;97326.16;;;9.82;93.86
42519;BME280;28147;47.520;18.920;2024-02-23T10:58:25;97331.22;;;9.84;94.83
42519;BME280;28147;47.520;18.920;2024-02-23T11:00:51;97327.19;;;9.76;94.30
42519;BME280;28147;47.520;18.920;2024-02-23T11:03:18;97318.88;;;10.05;94.72
42519;BME280;28147;47.520;18.920;2024-02-23T11:05:47;97327.69;;;10.10;94.91
42519;BME280;28147;47.520;18.920;2024-02-23T11:08:13;97328.41;;;9.63;95.28
42519;BME280;28147;47.520;18.920;2024-02-23T11:10:48;97317.72;;;9.58;95.66
42519;BME280;28147;47.520;18.920;2024-02-23T11:13:15;97332.28;;;9.83;95.71
42519;BME280;28147;47.520;18.920;2024-02-23T11:15:42;97333.00;;;9.73;96.61
42519;BME280;28147;47.520;18.920;2024-02-23T11:18:30;97340.09;;;9.62;96.20
42519;BME280;28147;47.520;18.920;2024-02-23T11:21:00;97331.88;;;10.01;96.49
42519;BME280;28147;47.520;18.920;2024-02-23T11:23:27;97326.47;;;9.86;94.35
42519;BME280;28147;47.520;18.920;2024-02-23T11:26:18;97332.81;;;9.85;94.68
42519;BME280;28147;47.520;18.920;2024-02-23T11:28:48;97335.72;;;9.78;92.50
42519;BME280;28147;47.520;18.920;2024-02-23T11:31:15;97328.84;;;9.87;94.83
42519;BME280;28147;47.520;18.920;2024-02-23T11:33:50;97329.53;;;10.10;94.66
42519;BME280;28147;47.520;18.920;2024-02-23T11:36:31;97316.81;;;10.12;93.77
42519;BME280;28147;47.520;18.920;2024-02-23T11:38:58;97330.53;;;9.98;93.99
42519;BME280;28147;47.520;18.920;2024-02-23T11:41:25;97318.81;;;9.99;93.51
42519;BME280;28147;47.520;18.920;2024-02-23T11:43:51;97316.84;;;10.22;93.81
42519;BME280;28147;47.520;18.920;2024-02-23T11:46:17;97324.00;;;10.16;93.08
42519;BME280;28147;47.520;18.920;2024-02-23T11:48:43;97317.25;;;10.04;93.71
42519;BME280;28147;47.520;18.920;2024-02-23T11:51:13;97314.25;;;10.27;93.78
42519;BME280;28147;47.520;18.920;2024-02-23T11:53:39;97299.34;;;10.26;93.42
42519;BME280;28147;47.520;18.920;2024-02-23T11:56:05;97297.84;;;10.45;92.86
42519;BME280;28147;47.520;18.920;2024-02-23T11:58:32;97300.97;;;10.27;93.39
42519;BME280;28147;47.520;18.920;2024-02-23T12:00:58;97314.69;;;10.66;92.65
42519;BME280;28147;47.520;18.920;2024-02-23T12:03:26;97319.66;;;10.42;93.04
42519;BME280;28147;47.520;18.920;2024-02-23T12:05:51;97310.13;;;10.09;94.23
42519;BME280;28147;47.520;18.920;2024-02-23T12:08:17;97307.25;;;10.16;93.90
42519;BME280;28147;47.520;18.920;2024-02-23T12:10:43;97300.69;;;10.29;93.64
42519;BME280;28147;47.520;18.920;2024-02-23T12:13:09;97299.47;;;10.52;92.45
42519;BME280;28147;47.520;18.920;2024-02-23T12:15:34;97293.28;;;10.36;92.17
42519;BME280;28147;47.520;18.920;2024-02-23T12:18:00;97298.19;;;10.12;93.61
42519;BME280;28147;47.520;18.920;2024-02-23T12:20:25;97284.75;;;10.34;94.06
42519;BME280;28147;47.520;18.920;2024-02-23T12:22:54;97298.66;;;10.46;94.70
42519;BME280;28147;47.520;18.920;2024-02-23T12:25:21;97299.44;;;10.46;93.33
42519;BME280;28147;47.520;18.920;2024-02-23T12:27:54;97293.28;;;10.41;93.85
42519;BME280;28147;47.520;18.920;2024-02-23T12:30:19;97289.03;;;10.40;92.40
42519;BME280;28147;47.520;18.920;2024-02-23T12:32:44;97305.84;;;10.56;91.57
42519;BME280;28147;47.520;18.920;2024-02-23T12:35:14;97313.28;;;10.48;90.48
42519;BME280;28147;47.520;18.920;2024-02-23T12:37:39;97306.03;;;10.34;90.25
42519;BME280;28147;47.520;18.920;2024-02-23T12:40:06;97301.19;;;10.26;91.30
42519;BME280;28147;47.520;18.920;2024-02-23T12:42:32;97307.94;;;10.38;90.20
42519;BME280;28147;47.520;18.920;2024-02-23T12:44:57;97319.88;;;10.31;90.96
42519;BME280;28147;47.520;18.920;2024-02-23T12:47:22;97299.28;;;10.21;91.49
42519;BME280;28147;47.520;18.920;2024-02-23T12:49:48;97308.28;;;10.15;93.10
42519;BME280;28147;47.520;18.920;2024-02-23T12:52:13;97314.84;;;10.39;92.70
42519;BME280;28147;47.520;18.920;2024-02-23T12:54:39;97301.75;;;10.28;91.85
42519;BME280;28147;47.520;18.920;2024-02-23T12:57:04;97305.22;;;10.28;91.92
42519;BME280;28147;47.520;18.920;2024-02-23T12:59:30;97308.94;;;10.27;92.33
42519;BME280;28147;47.520;18.920;2024-02-23T13:01:55;97309.47;;;10.29;91.27
42519;BME280;28147;47.520;18.920;2024-02-23T13:04:21;97300.31;;;10.15;92.49